createdAt,value
2016-08-21T00:00:28.905Z,1004.5
2016-08-21T00:01:29.283Z,1004.51
2016-08-21T00:02:29.075Z,1004.53
2016-08-21T00:03:28.994Z,1004.5
2016-08-21T00:04:29.079Z,1004.5
2016-08-21T00:05:29.035Z,1004.53
2016-08-21T00:06:29.045Z,1004.52
2016-08-21T00:07:29.302Z,1004.55
2016-08-21T00:08:29.067Z,1004.55
2016-08-21T00:09:29.517Z,1004.58
2016-08-21T00:10:28.943Z,1004.59
2016-08-21T00:11:29.546Z,1004.61
2016-08-21T00:12:30.325Z,1004.64
2016-08-21T00:13:29.027Z,1004.61
2016-08-21T00:14:29.028Z,1004.67
2016-08-21T00:15:29.477Z,1004.64
2016-08-21T00:16:29.259Z,1004.69
2016-08-21T00:17:29.268Z,1004.74
2016-08-21T00:18:29.791Z,1004.74
2016-08-21T00:19:29.907Z,1004.75
2016-08-21T00:20:29.086Z,1004.77
2016-08-21T00:21:29.787Z,1004.78
2016-08-21T00:22:29.913Z,1004.77
2016-08-21T00:23:29.277Z,1004.77
2016-08-21T00:24:29.053Z,1004.78
2016-08-21T00:25:29.340Z,1004.77
2016-08-21T00:26:29.419Z,1004.75
2016-08-21T00:27:29.856Z,1004.69
2016-08-21T00:28:29.542Z,1004.7
2016-08-21T00:29:29.452Z,1004.63
2016-08-21T00:30:29.946Z,1004.61
2016-08-21T00:31:29.785Z,1004.63
2016-08-21T00:32:29.433Z,1004.6
2016-08-21T00:33:29.392Z,1004.62
2016-08-21T00:34:29.447Z,1004.65
2016-08-21T00:35:29.925Z,1004.59
2016-08-21T00:36:29.940Z,1004.68
2016-08-21T00:37:29.570Z,1004.68
2016-08-21T00:38:29.866Z,1004.66
2016-08-21T00:39:29.612Z,1004.66
2016-08-21T00:40:30.025Z,1004.65
2016-08-21T00:41:29.697Z,1004.63
2016-08-21T00:42:29.740Z,1004.69
2016-08-21T00:43:29.707Z,1004.71
2016-08-21T00:44:29.867Z,1004.71
2016-08-21T00:45:30.019Z,1004.74
2016-08-21T00:46:30.453Z,1004.77
2016-08-21T00:47:29.648Z,1004.77
2016-08-21T00:48:29.667Z,1004.77
2016-08-21T00:49:29.818Z,1004.76
2016-08-21T00:50:30.017Z,1004.83
2016-08-21T00:51:29.902Z,1004.8
2016-08-21T00:52:29.855Z,1004.8
2016-08-21T00:53:29.753Z,1004.81
2016-08-21T00:54:29.856Z,1004.8
2016-08-21T00:55:30.005Z,1004.8
2016-08-21T00:56:30.263Z,1004.8
2016-08-21T00:57:30.877Z,1004.76
2016-08-21T00:58:30.159Z,1004.79
2016-08-21T00:59:30.062Z,1004.79
2016-08-21T01:00:30.064Z,1004.76
2016-08-21T01:01:30.342Z,1004.8
2016-08-21T01:02:30.258Z,1004.83
2016-08-21T01:03:30.572Z,1004.8
2016-08-21T01:04:30.066Z,1004.74
2016-08-21T01:05:30.460Z,1004.8
2016-08-21T01:06:30.479Z,1004.75
2016-08-21T01:07:30.469Z,1004.74
2016-08-21T01:08:30.275Z,1004.74
2016-08-21T01:09:30.424Z,1004.71
2016-08-21T01:10:30.357Z,1004.74
2016-08-21T01:11:30.330Z,1004.72
2016-08-21T01:12:30.440Z,1004.69
2016-08-21T01:13:30.354Z,1004.69
2016-08-21T01:14:30.591Z,1004.72
2016-08-21T01:15:30.761Z,1004.71
2016-08-21T01:16:30.377Z,1004.73
2016-08-21T01:17:31.164Z,1004.76
2016-08-21T01:18:30.667Z,1004.71
2016-08-21T01:19:30.443Z,1004.73
2016-08-21T01:20:30.518Z,1004.74
2016-08-21T01:21:30.516Z,1004.74
2016-08-21T01:22:31.249Z,1004.72
2016-08-21T01:23:30.576Z,1004.77
2016-08-21T01:24:30.737Z,1004.79
2016-08-21T01:25:31.030Z,1004.76
2016-08-21T01:26:30.981Z,1004.81
2016-08-21T01:27:30.961Z,1004.78
2016-08-21T01:28:30.978Z,1004.82
2016-08-21T01:29:31.134Z,1004.81
2016-08-21T01:30:30.555Z,1004.83
2016-08-21T01:31:30.804Z,1004.83
2016-08-21T01:32:31.090Z,1004.88
2016-08-21T01:33:31.077Z,1004.84
2016-08-21T01:34:31.484Z,1004.87
2016-08-21T01:35:31.260Z,1004.85
2016-08-21T01:36:30.968Z,1004.87
2016-08-21T01:37:30.963Z,1004.86
2016-08-21T01:38:31.175Z,1004.9
2016-08-21T01:39:30.975Z,1004.87
2016-08-21T01:40:30.991Z,1004.91
2016-08-21T01:41:31.168Z,1004.87
2016-08-21T01:42:31.039Z,1004.87
2016-08-21T01:43:31.041Z,1004.85
2016-08-21T01:44:31.324Z,1004.83
2016-08-21T01:45:31.274Z,1004.83
2016-08-21T01:46:31.031Z,1004.83
2016-08-21T01:47:31.463Z,1004.8
2016-08-21T01:48:31.498Z,1004.83
2016-08-21T01:49:30.967Z,1004.78
2016-08-21T01:50:31.160Z,1004.78
2016-08-21T01:51:31.238Z,1004.79
2016-08-21T01:52:31.227Z,1004.76
2016-08-21T01:53:31.274Z,1004.74
2016-08-21T01:54:31.389Z,1004.77
2016-08-21T01:55:31.298Z,1004.71
2016-08-21T01:56:31.691Z,1004.79
2016-08-21T01:57:31.757Z,1004.85
2016-08-21T01:58:32.094Z,1004.84
2016-08-21T01:59:31.689Z,1004.93
2016-08-21T02:00:31.411Z,1004.95
2016-08-21T02:01:31.641Z,1004.97
2016-08-21T02:02:31.593Z,1004.96
2016-08-21T02:03:31.385Z,1004.94
2016-08-21T02:04:31.750Z,1005
2016-08-21T02:05:31.802Z,1004.99
2016-08-21T02:06:31.721Z,1004.99
2016-08-21T02:07:31.632Z,1004.96
2016-08-21T02:08:31.938Z,1004.99
2016-08-21T02:09:32.118Z,1005.03
2016-08-21T02:10:32.526Z,1005.03
2016-08-21T02:11:31.566Z,1005.01
2016-08-21T02:12:31.586Z,1005
2016-08-21T02:13:31.775Z,1005.02
2016-08-21T02:14:31.730Z,1005.04
2016-08-21T02:15:32.367Z,1005.05
2016-08-21T02:16:32.096Z,1005
2016-08-21T02:17:31.594Z,1004.97
2016-08-21T02:18:31.866Z,1004.91
2016-08-21T02:19:32.257Z,1004.89
2016-08-21T02:20:31.823Z,1004.88
2016-08-21T02:21:31.835Z,1004.82
2016-08-21T02:22:32.155Z,1004.79
2016-08-21T02:23:32.101Z,1004.78
2016-08-21T02:24:31.945Z,1004.74
2016-08-21T02:25:32.252Z,1004.76
2016-08-21T02:26:32.270Z,1004.72
2016-08-21T02:27:31.867Z,1004.71
2016-08-21T02:28:32.441Z,1004.68
2016-08-21T02:29:32.343Z,1004.69
2016-08-21T02:30:32.594Z,1004.68
2016-08-21T02:31:32.595Z,1004.67
2016-08-21T02:32:33.181Z,1004.67
2016-08-21T02:33:32.376Z,1004.7
2016-08-21T02:34:32.213Z,1004.76
2016-08-21T02:35:32.395Z,1004.75
2016-08-21T02:36:32.529Z,1004.72
2016-08-21T02:37:32.138Z,1004.74
2016-08-21T02:38:32.381Z,1004.75
2016-08-21T02:39:32.335Z,1004.73
2016-08-21T02:40:32.486Z,1004.73
2016-08-21T02:41:32.898Z,1004.74
2016-08-21T02:42:32.933Z,1004.72
2016-08-21T02:43:32.628Z,1004.77
2016-08-21T02:44:32.451Z,1004.81
2016-08-21T02:45:32.778Z,1004.84
2016-08-21T02:46:32.376Z,1004.9
2016-08-21T02:47:32.596Z,1004.9
2016-08-21T02:48:33.129Z,1005
2016-08-21T02:49:32.597Z,1005.04
2016-08-21T02:50:32.829Z,1005.06
2016-08-21T02:51:32.565Z,1005.03
2016-08-21T02:52:32.622Z,1005.04
2016-08-21T02:53:33.518Z,1005.02
2016-08-21T02:54:32.976Z,1004.96
2016-08-21T02:55:32.629Z,1004.99
2016-08-21T02:56:32.982Z,1004.99
2016-08-21T02:57:32.741Z,1004.99
2016-08-21T02:58:32.820Z,1005.02
2016-08-21T02:59:32.967Z,1005.01
2016-08-21T03:00:33.144Z,1004.99
2016-08-21T03:01:33.150Z,1005.03
2016-08-21T03:02:33.576Z,1004.96
2016-08-21T03:03:32.851Z,1005.01
2016-08-21T03:04:32.911Z,1005.02
2016-08-21T03:05:34.290Z,1005.02
2016-08-21T03:06:33.065Z,1005.04
2016-08-21T03:07:32.868Z,1005.02
2016-08-21T03:08:33.134Z,1005.05
2016-08-21T03:09:33.195Z,1005.03
2016-08-21T03:10:33.135Z,1005.03
2016-08-21T03:11:33.039Z,1005.06
2016-08-21T03:12:33.289Z,1005.05
2016-08-21T03:13:33.238Z,1005.05
2016-08-21T03:14:33.555Z,1004.99
2016-08-21T03:15:33.282Z,1004.99
2016-08-21T03:16:33.792Z,1005.02
2016-08-21T03:17:33.354Z,1005
2016-08-21T03:18:33.016Z,1005.04
2016-08-21T03:19:33.576Z,1005.01
2016-08-21T03:20:33.241Z,1005.02
2016-08-21T03:21:33.478Z,1005.04
2016-08-21T03:22:33.827Z,1005.04
2016-08-21T03:23:33.206Z,1005.04
2016-08-21T03:24:33.536Z,1005.11
2016-08-21T03:25:33.321Z,1005.12
2016-08-21T03:26:33.633Z,1005.09
2016-08-21T03:27:33.432Z,1005.14
2016-08-21T03:28:33.631Z,1005.18
2016-08-21T03:29:34.026Z,1005.2
2016-08-21T03:30:33.969Z,1005.18
2016-08-21T03:31:33.935Z,1005.16
2016-08-21T03:32:33.629Z,1005.19
2016-08-21T03:33:33.945Z,1005.18
2016-08-21T03:34:34.843Z,1005.18
2016-08-21T03:35:33.543Z,1005.2
2016-08-21T03:36:33.603Z,1005.18
2016-08-21T03:37:34.054Z,1005.19
2016-08-21T03:38:34.538Z,1005.19
2016-08-21T03:39:34.106Z,1005.22
2016-08-21T03:40:34.762Z,1005.13
2016-08-21T03:41:34.262Z,1005.15
2016-08-21T03:42:34.617Z,1005.11
2016-08-21T03:43:33.962Z,1005.16
2016-08-21T03:44:33.685Z,1005.1
2016-08-21T03:45:34.051Z,1005.11
2016-08-21T03:46:34.967Z,1005.08
2016-08-21T03:47:34.062Z,1005.07
2016-08-21T03:48:34.043Z,1005.08
2016-08-21T03:49:34.530Z,1005.08
2016-08-21T03:50:33.838Z,1005.01
2016-08-21T03:51:34.677Z,1004.98
2016-08-21T03:52:34.300Z,1005.01
2016-08-21T03:53:35.101Z,1005.07
2016-08-21T03:54:34.446Z,1005.08
2016-08-21T03:55:34.327Z,1005.12
2016-08-21T03:56:35.115Z,1005.11
2016-08-21T03:57:34.467Z,1005.14
2016-08-21T03:58:34.245Z,1005.15
2016-08-21T03:59:34.299Z,1005.1
2016-08-21T04:00:34.928Z,1005.09
2016-08-21T04:01:34.677Z,1005.06
2016-08-21T04:02:34.493Z,1005.05
2016-08-21T04:03:34.624Z,1005.02
2016-08-21T04:04:34.500Z,1005.03
2016-08-21T04:05:34.436Z,1005.02
2016-08-21T04:06:34.512Z,1005.02
2016-08-21T04:07:34.767Z,1005.04
2016-08-21T04:08:35.296Z,1005.07
2016-08-21T04:09:34.304Z,1005.05
2016-08-21T04:10:34.485Z,1005.04
2016-08-21T04:11:35.725Z,1005.01
2016-08-21T04:12:34.727Z,1004.99
2016-08-21T04:13:34.874Z,1004.98
2016-08-21T04:14:34.547Z,1005.03
2016-08-21T04:15:34.761Z,1005.04
2016-08-21T04:16:35.295Z,1005.05
2016-08-21T04:17:34.753Z,1005.08
2016-08-21T04:18:34.737Z,1005.1
2016-08-21T04:19:34.681Z,1005.08
2016-08-21T04:20:34.658Z,1005.1
2016-08-21T04:21:34.743Z,1005.12
2016-08-21T04:22:34.721Z,1005.09
2016-08-21T04:23:35.045Z,1005.1
2016-08-21T04:24:35.447Z,1005.12
2016-08-21T04:25:34.711Z,1005.12
2016-08-21T04:26:34.871Z,1005.16
2016-08-21T04:27:34.652Z,1005.16
2016-08-21T04:28:35.044Z,1005.19
2016-08-21T04:29:34.751Z,1005.17
2016-08-21T04:30:35.128Z,1005.22
2016-08-21T04:31:34.984Z,1005.23
2016-08-21T04:32:35.150Z,1005.26
2016-08-21T04:33:35.354Z,1005.28
2016-08-21T04:34:35.030Z,1005.27
2016-08-21T04:35:35.070Z,1005.25
2016-08-21T04:36:35.350Z,1005.28
2016-08-21T04:37:34.984Z,1005.29
2016-08-21T04:38:34.959Z,1005.34
2016-08-21T04:39:35.372Z,1005.34
2016-08-21T04:40:35.569Z,1005.34
2016-08-21T04:41:35.346Z,1005.33
2016-08-21T04:42:35.165Z,1005.36
2016-08-21T04:43:35.013Z,1005.35
2016-08-21T04:44:35.173Z,1005.38
2016-08-21T04:45:35.235Z,1005.36
2016-08-21T04:46:35.020Z,1005.33
2016-08-21T04:47:35.170Z,1005.28
2016-08-21T04:48:35.209Z,1005.28
2016-08-21T04:49:35.480Z,1005.27
2016-08-21T04:50:36.815Z,1005.25
2016-08-21T04:51:37.162Z,1005.22
2016-08-21T04:52:35.425Z,1005.19
2016-08-21T04:53:35.234Z,1005.2
2016-08-21T04:54:35.842Z,1005.18
2016-08-21T04:55:36.155Z,1005.18
2016-08-21T04:56:35.289Z,1005.21
2016-08-21T04:57:35.405Z,1005.17
2016-08-21T04:58:35.408Z,1005.17
2016-08-21T04:59:35.536Z,1005.18
2016-08-21T05:00:35.657Z,1005.16
2016-08-21T05:01:35.741Z,1005.14
2016-08-21T05:02:35.657Z,1005.15
2016-08-21T05:03:35.763Z,1005.11
2016-08-21T05:04:35.843Z,1005.15
2016-08-21T05:05:35.852Z,1005.16
2016-08-21T05:06:35.671Z,1005.15
2016-08-21T05:07:35.590Z,1005.14
2016-08-21T05:08:35.743Z,1005.14
2016-08-21T05:09:35.735Z,1005.12
2016-08-21T05:10:36.761Z,1005.16
2016-08-21T05:11:36.504Z,1005.17
2016-08-21T05:12:35.628Z,1005.19
2016-08-21T05:13:36.508Z,1005.18
2016-08-21T05:14:35.839Z,1005.16
2016-08-21T05:15:36.370Z,1005.19
2016-08-21T05:16:36.166Z,1005.18
2016-08-21T05:17:35.945Z,1005.2
2016-08-21T05:18:36.148Z,1005.17
2016-08-21T05:19:35.939Z,1005.19
2016-08-21T05:20:36.767Z,1005.22
2016-08-21T05:21:36.015Z,1005.25
2016-08-21T05:22:36.239Z,1005.26
2016-08-21T05:23:36.438Z,1005.27
2016-08-21T05:24:36.308Z,1005.27
2016-08-21T05:25:36.395Z,1005.27
2016-08-21T05:26:36.493Z,1005.29
2016-08-21T05:27:36.474Z,1005.31
2016-08-21T05:28:36.399Z,1005.35
2016-08-21T05:29:36.141Z,1005.32
2016-08-21T05:30:36.387Z,1005.3
2016-08-21T05:31:36.369Z,1005.35
2016-08-21T05:32:36.545Z,1005.35
2016-08-21T05:33:36.407Z,1005.38
2016-08-21T05:34:36.329Z,1005.44
2016-08-21T05:35:36.568Z,1005.5
2016-08-21T05:36:36.377Z,1005.47
2016-08-21T05:37:36.689Z,1005.48
2016-08-21T05:38:36.380Z,1005.44
2016-08-21T05:39:36.325Z,1005.49
2016-08-21T05:40:36.484Z,1005.54
2016-08-21T05:41:36.381Z,1005.51
2016-08-21T05:42:36.843Z,1005.52
2016-08-21T05:43:37.631Z,1005.53
2016-08-21T05:44:36.794Z,1005.55
2016-08-21T05:45:36.559Z,1005.54
2016-08-21T05:46:36.624Z,1005.55
2016-08-21T05:47:36.616Z,1005.57
2016-08-21T05:48:36.831Z,1005.61
2016-08-21T05:49:37.729Z,1005.6
2016-08-21T05:50:36.688Z,1005.61
2016-08-21T05:51:36.912Z,1005.59
2016-08-21T05:52:36.673Z,1005.64
2016-08-21T05:53:37.137Z,1005.6
2016-08-21T05:54:36.851Z,1005.68
2016-08-21T05:55:36.727Z,1005.59
2016-08-21T05:56:36.733Z,1005.62
2016-08-21T05:57:36.990Z,1005.69
2016-08-21T05:58:36.882Z,1005.77
2016-08-21T05:59:37.232Z,1005.78
2016-08-21T06:00:37.137Z,1005.79
2016-08-21T06:01:38.021Z,1005.79
2016-08-21T06:02:37.657Z,1005.78
2016-08-21T06:03:37.339Z,1005.8
2016-08-21T06:04:37.434Z,1005.82
2016-08-21T06:05:37.245Z,1005.83
2016-08-21T06:06:37.170Z,1005.81
2016-08-21T06:07:36.965Z,1005.84
2016-08-21T06:08:37.113Z,1005.8
2016-08-21T06:09:37.220Z,1005.8
2016-08-21T06:10:37.244Z,1005.85
2016-08-21T06:11:37.035Z,1005.91
2016-08-21T06:12:37.407Z,1005.89
2016-08-21T06:13:37.354Z,1005.87
2016-08-21T06:14:37.015Z,1005.84
2016-08-21T06:15:37.545Z,1005.84
2016-08-21T06:16:37.601Z,1005.79
2016-08-21T06:17:37.401Z,1005.8
2016-08-21T06:18:37.556Z,1005.78
2016-08-21T06:19:38.062Z,1005.8
2016-08-21T06:20:37.400Z,1005.71
2016-08-21T06:21:37.431Z,1005.88
2016-08-21T06:22:38.052Z,1005.85
2016-08-21T06:23:37.437Z,1005.89
2016-08-21T06:24:37.982Z,1005.97
2016-08-21T06:25:37.513Z,1006.01
2016-08-21T06:26:37.606Z,1005.82
2016-08-21T06:27:38.229Z,1005.98
2016-08-21T06:28:37.496Z,1006.02
2016-08-21T06:29:37.968Z,1005.89
2016-08-21T06:30:37.448Z,1005.74
2016-08-21T06:31:38.218Z,1005.76
2016-08-21T06:32:38.032Z,1005.69
2016-08-21T06:33:37.823Z,1005.72
2016-08-21T06:34:37.714Z,1005.72
2016-08-21T06:35:38.028Z,1005.86
2016-08-21T06:36:37.988Z,1005.75
2016-08-21T06:37:37.848Z,1005.71
2016-08-21T06:38:37.898Z,1005.62
2016-08-21T06:39:37.910Z,1005.7
2016-08-21T06:40:38.381Z,1005.69
2016-08-21T06:41:37.920Z,1005.84
2016-08-21T06:42:37.958Z,1005.85
2016-08-21T06:43:38.281Z,1005.82
2016-08-21T06:44:38.593Z,1006.11
2016-08-21T06:45:37.827Z,1006.1
2016-08-21T06:46:38.058Z,1006.1
2016-08-21T06:47:38.080Z,1006.07
2016-08-21T06:48:38.141Z,1006
2016-08-21T06:49:38.147Z,1005.82
2016-08-21T06:50:38.085Z,1005.83
2016-08-21T06:51:38.551Z,1005.86
2016-08-21T06:52:38.409Z,1006.01
2016-08-21T06:53:38.120Z,1005.98
2016-08-21T06:54:38.392Z,1005.91
2016-08-21T06:55:38.638Z,1005.91
2016-08-21T06:56:39.211Z,1005.87
2016-08-21T06:57:38.298Z,1005.85
2016-08-21T06:58:39.610Z,1005.84
2016-08-21T06:59:38.254Z,1005.76
2016-08-21T07:00:38.518Z,1005.79
2016-08-21T07:01:38.541Z,1005.75
2016-08-21T07:02:38.762Z,1005.71
2016-08-21T07:03:38.410Z,1005.68
2016-08-21T07:04:38.732Z,1005.72
2016-08-21T07:05:38.726Z,1005.7
2016-08-21T07:06:38.695Z,1005.67
2016-08-21T07:07:39.525Z,1005.68
2016-08-21T07:08:38.700Z,1005.67
2016-08-21T07:09:38.697Z,1005.65
2016-08-21T07:10:38.633Z,1005.66
2016-08-21T07:11:38.517Z,1005.66
2016-08-21T07:12:38.941Z,1005.67
2016-08-21T07:13:39.251Z,1005.63
2016-08-21T07:14:38.656Z,1005.61
2016-08-21T07:15:38.991Z,1005.58
2016-08-21T07:16:38.740Z,1005.64
2016-08-21T07:17:39.339Z,1005.66
2016-08-21T07:18:38.779Z,1005.63
2016-08-21T07:19:39.573Z,1005.61
2016-08-21T07:20:39.358Z,1005.62
2016-08-21T07:21:39.206Z,1005.64
2016-08-21T07:22:39.018Z,1005.65
2016-08-21T07:23:39.255Z,1005.64
2016-08-21T07:24:39.878Z,1005.65
2016-08-21T07:25:39.282Z,1005.68
2016-08-21T07:26:39.234Z,1005.7
2016-08-21T07:27:39.475Z,1005.7
2016-08-21T07:28:39.399Z,1005.74
2016-08-21T07:29:39.222Z,1005.79
2016-08-21T07:30:40.074Z,1005.83
2016-08-21T07:31:39.633Z,1005.86
2016-08-21T07:32:39.615Z,1005.9
2016-08-21T07:33:39.527Z,1005.89
2016-08-21T07:34:39.390Z,1005.89
2016-08-21T07:35:39.713Z,1005.93
2016-08-21T07:36:39.611Z,1005.92
2016-08-21T07:37:39.630Z,1005.93
2016-08-21T07:38:39.847Z,1005.91
2016-08-21T07:39:39.726Z,1005.92
2016-08-21T07:40:39.734Z,1005.92
2016-08-21T07:41:39.423Z,1005.91
2016-08-21T07:42:40.025Z,1005.92
2016-08-21T07:43:39.496Z,1005.91
2016-08-21T07:44:39.523Z,1005.93
2016-08-21T07:45:40.002Z,1005.98
2016-08-21T07:46:39.985Z,1005.96
2016-08-21T07:47:39.347Z,1005.99
2016-08-21T07:48:39.790Z,1005.97
2016-08-21T07:49:40.189Z,1005.92
2016-08-21T07:50:39.826Z,1005.95
2016-08-21T07:51:39.725Z,1005.95
2016-08-21T07:52:39.885Z,1005.93
2016-08-21T07:53:40.299Z,1005.95
2016-08-21T07:54:39.974Z,1005.93
2016-08-21T07:55:40.006Z,1005.92
2016-08-21T07:56:40.131Z,1005.93
2016-08-21T07:57:39.777Z,1005.94
2016-08-21T07:58:40.137Z,1005.93
2016-08-21T07:59:40.039Z,1005.99
2016-08-21T08:00:40.138Z,1006.03
2016-08-21T08:01:39.959Z,1006.03
2016-08-21T08:02:40.118Z,1006.02
2016-08-21T08:03:40.150Z,1006.07
2016-08-21T08:04:40.082Z,1006.04
2016-08-21T08:05:40.242Z,1006.08
2016-08-21T08:06:40.562Z,1006.08
2016-08-21T08:07:40.455Z,1006.08
2016-08-21T08:08:40.394Z,1006.04
2016-08-21T08:09:40.576Z,1006.05
2016-08-21T08:10:40.593Z,1006.07
2016-08-21T08:11:40.137Z,1006.03
2016-08-21T08:12:40.587Z,1006.05
2016-08-21T08:13:40.433Z,1006.04
2016-08-21T08:14:40.632Z,1006.06
2016-08-21T08:15:40.965Z,1006.03
2016-08-21T08:16:40.397Z,1006.04
2016-08-21T08:17:40.308Z,1006.05
2016-08-21T08:18:41.227Z,1005.95
2016-08-21T08:19:40.903Z,1005.97
2016-08-21T08:20:40.976Z,1005.97
2016-08-21T08:21:40.679Z,1005.94
2016-08-21T08:22:40.531Z,1005.94
2016-08-21T08:23:41.015Z,1005.91
2016-08-21T08:24:40.986Z,1005.95
2016-08-21T08:25:40.726Z,1005.97
2016-08-21T08:26:41.202Z,1005.97
2016-08-21T08:27:40.926Z,1005.98
2016-08-21T08:28:40.682Z,1005.97
2016-08-21T08:29:41.142Z,1005.98
2016-08-21T08:30:40.803Z,1006
2016-08-21T08:31:40.663Z,1006
2016-08-21T08:32:40.792Z,1006
2016-08-21T08:33:40.999Z,1006.03
2016-08-21T08:34:40.743Z,1006.02
2016-08-21T08:35:41.503Z,1006.08
2016-08-21T08:36:41.224Z,1006.05
2016-08-21T08:37:40.812Z,1006.09
2016-08-21T08:38:41.392Z,1006.08
2016-08-21T08:39:40.782Z,1006.12
2016-08-21T08:40:41.099Z,1006.11
2016-08-21T08:41:41.167Z,1006.16
2016-08-21T08:42:41.161Z,1006.2
2016-08-21T08:43:41.069Z,1006.2
2016-08-21T08:44:41.807Z,1006.19
2016-08-21T08:45:41.309Z,1006.2
2016-08-21T08:46:41.230Z,1006.25
2016-08-21T08:47:41.270Z,1006.17
2016-08-21T08:48:41.411Z,1006.21
2016-08-21T08:49:41.319Z,1006.21
2016-08-21T08:50:41.618Z,1006.22
2016-08-21T08:51:41.519Z,1006.18
2016-08-21T08:52:41.150Z,1006.17
2016-08-21T08:53:41.586Z,1006.21
2016-08-21T08:54:41.351Z,1006.22
2016-08-21T08:55:41.612Z,1006.18
2016-08-21T08:56:41.598Z,1006.22
2016-08-21T08:57:41.557Z,1006.21
2016-08-21T08:58:42.051Z,1006.22
2016-08-21T08:59:41.603Z,1006.23
2016-08-21T09:00:41.479Z,1006.2
2016-08-21T09:01:41.978Z,1006.2
2016-08-21T09:02:42.145Z,1006.19
2016-08-21T09:03:42.294Z,1006.14
2016-08-21T09:04:41.584Z,1006.19
2016-08-21T09:05:41.841Z,1006.25
2016-08-21T09:06:42.178Z,1006.22
2016-08-21T09:07:41.653Z,1006.36
2016-08-21T09:08:41.773Z,1006.32
2016-08-21T09:09:42.058Z,1006.27
2016-08-21T09:10:41.853Z,1006.27
2016-08-21T09:11:41.819Z,1006.25
2016-08-21T09:12:42.038Z,1006.28
2016-08-21T09:13:41.991Z,1006.25
2016-08-21T09:14:42.311Z,1006.27
2016-08-21T09:15:42.525Z,1006.33
2016-08-21T09:16:42.518Z,1006.3
2016-08-21T09:17:42.403Z,1006.36
2016-08-21T09:18:42.579Z,1006.42
2016-08-21T09:19:42.499Z,1006.41
2016-08-21T09:20:42.682Z,1006.45
2016-08-21T09:21:42.375Z,1006.38
2016-08-21T09:22:42.437Z,1006.39
2016-08-21T09:23:42.819Z,1006.36
2016-08-21T09:24:42.223Z,1006.27
2016-08-21T09:25:42.203Z,1006.18
2016-08-21T09:26:42.490Z,1006.22
2016-08-21T09:27:42.248Z,1006.16
2016-08-21T09:28:42.329Z,1006.26
2016-08-21T09:29:42.680Z,1006.32
2016-08-21T09:30:42.586Z,1006.48
2016-08-21T09:31:43.159Z,1006.64
2016-08-21T09:32:42.700Z,1006.54
2016-08-21T09:33:42.450Z,1006.63
2016-08-21T09:34:42.574Z,1006.49
2016-08-21T09:35:42.472Z,1006.22
2016-08-21T09:36:43.262Z,1006.52
2016-08-21T09:37:42.516Z,1006.36
2016-08-21T09:38:42.750Z,1006.51
2016-08-21T09:39:42.913Z,1006.24
2016-08-21T09:40:42.798Z,1006.35
2016-08-21T09:41:42.763Z,1006.22
2016-08-21T09:42:43.100Z,1006.45
2016-08-21T09:43:44.265Z,1006.27
2016-08-21T09:44:42.906Z,1006.38
2016-08-21T09:45:42.961Z,1006.82
2016-08-21T09:46:42.873Z,1006.51
2016-08-21T09:47:43.267Z,1006.2
2016-08-21T09:48:42.811Z,1006.13
2016-08-21T09:49:43.235Z,1006.2
2016-08-21T09:50:43.072Z,1006.22
2016-08-21T09:51:43.375Z,1006.2
2016-08-21T09:52:43.018Z,1006.14
2016-08-21T09:53:43.539Z,1006.14
2016-08-21T09:54:43.653Z,1006.08
2016-08-21T09:55:43.473Z,1006.04
2016-08-21T09:56:43.326Z,1006.04
2016-08-21T09:57:43.848Z,1006.01
2016-08-21T09:58:44.150Z,1006
2016-08-21T09:59:43.558Z,1005.99
2016-08-21T10:00:43.544Z,1006.14
2016-08-21T10:01:43.444Z,1006.2
2016-08-21T10:02:43.625Z,1006.07
2016-08-21T10:03:43.568Z,1006.05
2016-08-21T10:04:43.294Z,1005.91
2016-08-21T10:05:43.845Z,1005.95
2016-08-21T10:06:43.591Z,1006
2016-08-21T10:07:43.680Z,1005.95
2016-08-21T10:08:43.505Z,1005.96
2016-08-21T10:09:44.482Z,1006.01
2016-08-21T10:10:43.702Z,1006.05
2016-08-21T10:11:44.110Z,1006
2016-08-21T10:12:43.937Z,1006.01
2016-08-21T10:13:44.190Z,1006
2016-08-21T10:14:44.225Z,1006.01
2016-08-21T10:15:44.169Z,1006.05
2016-08-21T10:16:44.135Z,1006.04
2016-08-21T10:17:43.813Z,1006.07
2016-08-21T10:18:44.357Z,1006.06
2016-08-21T10:19:44.410Z,1006.04
2016-08-21T10:20:44.679Z,1006.14
2016-08-21T10:21:45.264Z,1006.1
2016-08-21T10:22:44.922Z,1006.12
2016-08-21T10:23:44.552Z,1006.17
2016-08-21T10:24:44.556Z,1006.24
2016-08-21T10:25:44.239Z,1006.49
2016-08-21T10:26:44.933Z,1006.76
2016-08-21T10:27:44.279Z,1006.23
2016-08-21T10:28:45.023Z,1006.69
2016-08-21T10:29:44.772Z,1006.59
2016-08-21T10:30:44.663Z,1006.37
2016-08-21T10:31:44.385Z,1006.58
2016-08-21T10:32:44.542Z,1006.49
2016-08-21T10:33:45.031Z,1006.51
2016-08-21T10:34:44.393Z,1006.53
2016-08-21T10:35:45.079Z,1006.54
2016-08-21T10:36:44.728Z,1006.5
2016-08-21T10:37:45.022Z,1006.5
2016-08-21T10:38:44.650Z,1006.03
2016-08-21T10:39:44.684Z,1005.95
2016-08-21T10:40:44.802Z,1005.92
2016-08-21T10:41:44.913Z,1005.95
2016-08-21T10:42:44.673Z,1005.96
2016-08-21T10:43:44.737Z,1006.02
2016-08-21T10:44:45.823Z,1006.01
2016-08-21T10:45:45.231Z,1006.16
2016-08-21T10:46:45.873Z,1006.1
2016-08-21T10:47:46.106Z,1006.19
2016-08-21T10:48:45.024Z,1006.29
2016-08-21T10:49:45.432Z,1005.87
2016-08-21T10:50:45.084Z,1005.86
2016-08-21T10:51:45.591Z,1006.43
2016-08-21T10:52:45.419Z,1006.36
2016-08-21T10:53:45.554Z,1006.45
2016-08-21T10:54:45.043Z,1005.91
2016-08-21T10:55:46.149Z,1006.48
2016-08-21T10:56:45.928Z,1006.61
2016-08-21T10:57:45.266Z,1006.63
2016-08-21T10:58:45.544Z,1006.52
2016-08-21T10:59:46.153Z,1006.56
2016-08-21T11:00:45.989Z,1006.54
2016-08-21T11:01:45.542Z,1006.55
2016-08-21T11:02:45.411Z,1006.55
2016-08-21T11:03:45.449Z,1006.52
2016-08-21T11:04:46.052Z,1006.44
2016-08-21T11:05:45.639Z,1006.37
2016-08-21T11:06:45.957Z,1006.1
2016-08-21T11:07:45.723Z,1006.46
2016-08-21T11:08:45.702Z,1006.41
2016-08-21T11:09:46.383Z,1005.83
2016-08-21T11:10:45.680Z,1005.87
2016-08-21T11:11:45.761Z,1005.9
2016-08-21T11:12:46.245Z,1006
2016-08-21T11:13:46.728Z,1006.05
2016-08-21T11:14:45.873Z,1006.08
2016-08-21T11:15:46.043Z,1006.63
2016-08-21T11:16:45.674Z,1006.05
2016-08-21T11:17:46.038Z,1006.02
2016-08-21T11:18:45.931Z,1006.59
2016-08-21T11:19:46.318Z,1006.57
2016-08-21T11:20:46.481Z,1006.65
2016-08-21T11:21:46.399Z,1006.58
2016-08-21T11:22:46.289Z,1006.68
2016-08-21T11:23:46.523Z,1006.13
2016-08-21T11:24:47.181Z,1006.16
2016-08-21T11:25:46.052Z,1006.13
2016-08-21T11:26:46.312Z,1006.77
2016-08-21T11:27:46.117Z,1006.72
2016-08-21T11:28:46.260Z,1006.73
2016-08-21T11:29:46.106Z,1006.66
2016-08-21T11:30:46.366Z,1006.7
2016-08-21T11:31:46.514Z,1006.63
2016-08-21T11:32:46.636Z,1006.6
2016-08-21T11:33:46.726Z,1006.55
2016-08-21T11:34:46.905Z,1006.17
2016-08-21T11:35:47.186Z,1005.91
2016-08-21T11:36:46.623Z,1006.58
2016-08-21T11:37:46.846Z,1006.02
2016-08-21T11:38:46.540Z,1006.61
2016-08-21T11:39:46.437Z,1006.75
2016-08-21T11:40:46.886Z,1006.62
2016-08-21T11:41:46.597Z,1006.57
2016-08-21T11:42:46.862Z,1006.63
2016-08-21T11:43:46.933Z,1006.56
2016-08-21T11:44:46.676Z,1006.43
2016-08-21T11:45:46.706Z,1005.94
2016-08-21T11:46:46.955Z,1005.98
2016-08-21T11:47:47.683Z,1005.98
2016-08-21T11:48:47.315Z,1006.02
2016-08-21T11:49:46.844Z,1005.98
2016-08-21T11:50:47.065Z,1006.1
2016-08-21T11:51:47.797Z,1006.6
2016-08-21T11:52:47.074Z,1006.67
2016-08-21T11:53:47.656Z,1006.61
2016-08-21T11:54:47.485Z,1006.67
2016-08-21T11:55:47.053Z,1006.64
2016-08-21T11:56:47.311Z,1006.7
2016-08-21T11:57:47.030Z,1006.23
2016-08-21T11:58:47.328Z,1006.25
2016-08-21T11:59:47.774Z,1006.35
2016-08-21T12:00:47.606Z,1006.44
2016-08-21T12:01:47.631Z,1006.4
2016-08-21T12:02:47.263Z,1006.55
2016-08-21T12:03:48.227Z,1006.55
2016-08-21T12:04:48.294Z,1006.55
2016-08-21T12:05:47.530Z,1005.98
2016-08-21T12:06:47.749Z,1005.98
2016-08-21T12:07:47.699Z,1006.56
2016-08-21T12:08:47.503Z,1006.68
2016-08-21T12:09:47.999Z,1006.65